Varnadiep — PBIB — position and weather

sailwx.info

Track history (hours):
 
Tides and Currents Weather Stations Pressure Air Temp Water Temp Dewpoint Dewpoint Depression Visibility Wind Speed Wind Dir Waves Ship Positions

Varnadiep

Last reported at 2015-Jul-04 07:25 UTC. Time now 2015-Jul-07 08:56 UTC.
Position N 56°41' E 019°42'.

Length 118 m; draft 4.8 m.

Type: Cargo ship. MMSI: 244729000.

Date/timePositionNaut miles runAvg speedWind from/ knotsBaromVisibWave heightAir tempDewpointWater temp
2015-Jul-04 07:25N 56°41' E 019°42'1312.7
2015-Jul-04 06:24N 56°33' E 019°23'2812.5
2015-Jul-04 04:11N 56°16' E 018°44'812.6
2015-Jul-04 03:33N 56°11' E 018°33'2512.5
2015-Jul-04 01:31N 55°55' E 017°57'1312.7
2015-Jul-04 00:31N 55°52' E 017°35'1212.6
2015-Jul-03 23:33N 55°49' E 017°14'1312.7
2015-Jul-03 22:33N 55°45' E 016°52'2512.5
2015-Jul-03 20:32N 55°38' E 016°09'1412.8
2015-Jul-03 19:26N 55°34' E 015°45'1112.9
2015-Jul-03 18:33N 55°31' E 015°26'1312.7
2015-Jul-03 17:33N 55°28' E 015°04'1212.4
2015-Jul-03 16:33N 55°24' E 014°43'1211.9
2015-Jul-03 15:32N 55°15' E 014°28'1111.2
2015-Jul-03 14:33N 55°10' E 014°12'1212.1
2015-Jul-03 13:33N 55°10' E 013°51'1212.1
2015-Jul-03 12:33N 55°12' E 013°30'1212.1
2015-Jul-03 11:33N 55°14' E 013°09'1212.1
2015-Jul-03 10:33N 55°15' E 012°48'9 9.5
2015-Jul-03 09:33N 55°24' E 012°40'1211.5
2015-Jul-03 08:33N 55°35' E 012°42'1010.4
2015-Jul-03 07:33N 55°46' E 012°41'1111.4
2015-Jul-03 06:33N 55°57' E 012°38'10 9.6
2015-Jul-03 05:33N 56°06' E 012°33'1111.2
2015-Jul-03 04:33N 56°13' E 012°16'1311.9
2015-Jul-03 03:26N 56°19' E 011°55'3211.1
2015-Jul-03 00:31N 56°33' E 011°03'1210.2
2015-Jul-02 23:19N 56°45' E 010°58'911.5
2015-Jul-02 22:33N 56°51' E 010°46'1110.7
2015-Jul-02 21:33N 56°56' E 010°29'8 7.9
2015-Jul-02 20:33N 56°59' E 010°15'10 9.6
2015-Jul-02 19:34N 57°05' E 010°02'2 1.8
2015-Jul-02 18:32N 57°04' E 009°58'0 0.0
2015-Jul-02 17:32N 57°04' E 009°58'0 0.0
2015-Jul-02 16:32N 57°04' E 009°58'0 0.0
2015-Jul-02 15:32N 57°04' E 009°58'0 0.0
2015-Jul-02 14:20N 57°04' E 009°58'0 0.0
2015-Jul-02 13:32N 57°04' E 009°58'0 0.0
2015-Jul-02 12:32N 57°04' E 009°58'0 0.0
2015-Jul-02 11:32N 57°04' E 009°58'0 0.0
2015-Jul-02 10:32N 57°04' E 009°58'0 0.0
2015-Jul-02 09:29N 57°04' E 009°58'0 0.0
2015-Jul-02 08:32N 57°04' E 009°58'0 0.0
2015-Jul-02 07:32N 57°04' E 009°58'0 0.0
2015-Jul-02 06:32N 57°04' E 009°58'0 0.0
2015-Jul-02 05:32N 57°04' E 009°58'0 0.0
2015-Jul-02 04:32N 57°04' E 009°58'0 0.0
2015-Jul-02 03:32N 57°04' E 009°58'0 0.0
2015-Jul-02 02:32N 57°04' E 009°58'0 0.0
2015-Jul-02 01:32N 57°04' E 009°58'0 0.0
2015-Jul-02 00:32N 57°04' E 009°58'0 0.0
2015-Jul-01 23:32N 57°04' E 009°58'0 0.0
2015-Jul-01 22:32N 57°04' E 009°58'0 0.0
2015-Jul-01 21:32N 57°04' E 009°58'0 0.0
2015-Jul-01 20:32N 57°04' E 009°58'0 0.0
2015-Jul-01 19:32N 57°04' E 009°58'0 0.0
2015-Jul-01 18:32N 57°04' E 009°58'0 0.0
2015-Jul-01 17:32N 57°04' E 009°58'0 0.0
2015-Jul-01 16:32N 57°04' E 009°58'0 0.0
2015-Jul-01 15:32N 57°04' E 009°58'0 0.0
2015-Jul-01 14:32N 57°04' E 009°58'0 0.0
2015-Jul-01 13:29N 57°04' E 009°58'0 0.0
2015-Jul-01 12:32N 57°04' E 009°58'0 0.0
2015-Jul-01 11:32N 57°04' E 009°58'0 0.0
2015-Jul-01 10:29N 57°04' E 009°58'0 0.0
2015-Jul-01 09:32N 57°04' E 009°58'0 0.0
2015-Jul-01 08:32N 57°04' E 009°58'0 0.0
2015-Jul-01 07:32N 57°04' E 009°58'0 0.0
2015-Jul-01 06:32N 57°04' E 009°58'0 0.0
2015-Jul-01 05:32N 57°04' E 009°58'0 0.0
2015-Jul-01 04:32N 57°04' E 009°58'0 0.0
2015-Jul-01 03:29N 57°04' E 009°58'0 0.0
2015-Jul-01 02:29N 57°04' E 009°58'0 0.0
2015-Jul-01 01:32N 57°04' E 009°58'0 0.0
2015-Jul-01 00:32N 57°04' E 009°58'0 0.0
2015-Jun-30 23:32N 57°04' E 009°58'0 0.0
2015-Jun-30 22:32N 57°04' E 009°58'0 0.0
2015-Jun-30 21:32N 57°04' E 009°58'0 0.0
2015-Jun-30 20:32N 57°04' E 009°58'0 0.0
2015-Jun-30 19:32N 57°04' E 009°58'0 0.0
2015-Jun-30 18:32N 57°04' E 009°58'0 0.0
2015-Jun-30 17:32N 57°04' E 009°58'0 0.0
2015-Jun-30 16:32N 57°04' E 009°58'0 0.0
2015-Jun-30 15:29N 57°04' E 009°58'0 0.0
2015-Jun-30 14:32N 57°04' E 009°58'0 0.0
2015-Jun-30 13:32N 57°04' E 009°58'0 0.0
2015-Jun-30 12:32N 57°04' E 009°58'0 0.0
2015-Jun-30 11:32N 57°04' E 009°58'0 0.0
2015-Jun-30 10:32N 57°04' E 009°58'0 0.0
2015-Jun-30 09:32N 57°04' E 009°58'0 0.0
2015-Jun-30 08:26N 57°04' E 009°58'0 0.0
2015-Jun-30 07:32N 57°04' E 009°58'0 0.0
2015-Jun-30 06:32N 57°04' E 009°58'0 0.0
2015-Jun-30 05:29N 57°04' E 009°58'0 0.0
2015-Jun-30 04:32N 57°04' E 009°58'0 0.0
2015-Jun-30 03:29N 57°04' E 009°58'0 0.0
2015-Jun-30 02:32N 57°04' E 009°58'0 0.0
2015-Jun-30 01:32N 57°04' E 009°58'0 0.0
2015-Jun-30 00:32N 57°04' E 009°58'0 0.0
2015-Jun-29 23:32N 57°04' E 009°58'0 0.0
2015-Jun-29 22:32N 57°04' E 009°58'0 0.0
2015-Jun-29 21:32N 57°04' E 009°58'0 0.0
2015-Jun-29 20:32N 57°04' E 009°58'0 0.0
2015-Jun-29 19:32N 57°04' E 009°58'0 0.0
2015-Jun-29 18:32N 57°04' E 009°58'0 0.0
2015-Jun-29 17:32N 57°04' E 009°58'0 0.0
2015-Jun-29 16:29N 57°04' E 009°58'0 0.0
2015-Jun-29 15:32N 57°04' E 009°58'0 0.0
2015-Jun-29 14:32N 57°04' E 009°58'0 0.0
2015-Jun-29 13:32N 57°04' E 009°58'0 0.0
2015-Jun-29 12:29N 57°04' E 009°58'0 0.0
2015-Jun-29 11:32N 57°04' E 009°58'0 0.0
2015-Jun-29 10:32N 57°04' E 009°58'0 0.0
2015-Jun-29 09:29N 57°04' E 009°58'0 0.0
2015-Jun-29 08:32N 57°04' E 009°58'  
2015-Jun-26 12:32N 57°04' E 009°58'0 0.0
2015-Jun-26 11:32N 57°04' E 009°58'0 0.0
2015-Jun-26 10:32N 57°04' E 009°58'0 0.0
2015-Jun-26 09:32N 57°04' E 009°58'0 0.0
2015-Jun-26 08:32N 57°04' E 009°58'0 0.0
2015-Jun-26 07:29N 57°04' E 009°58'0 0.0
2015-Jun-26 06:29N 57°04' E 009°58'0 0.0
2015-Jun-26 05:32N 57°04' E 009°58'0 0.0
2015-Jun-26 04:32N 57°04' E 009°58'0 0.0
2015-Jun-26 03:32N 57°04' E 009°58'0 0.0
2015-Jun-26 02:32N 57°04' E 009°58'0 0.0
2015-Jun-26 01:32N 57°04' E 009°58'0 0.0
2015-Jun-26 00:32N 57°04' E 009°58'0 0.0
2015-Jun-25 23:29N 57°04' E 009°58'0 0.0
2015-Jun-25 22:32N 57°04' E 009°58'0 0.0
2015-Jun-25 21:32N 57°04' E 009°58'0 0.0
2015-Jun-25 20:32N 57°04' E 009°58'0 0.0
2015-Jun-25 19:20N 57°04' E 009°58'0 0.0
2015-Jun-25 18:32N 57°04' E 009°58'0 0.0
2015-Jun-25 17:23N 57°04' E 009°58'0 0.0
2015-Jun-25 16:26N 57°04' E 009°58'0 0.0
2015-Jun-25 15:32N 57°04' E 009°58'0 0.0
2015-Jun-25 14:29N 57°04' E 009°58'0 0.0
2015-Jun-25 13:29N 57°04' E 009°58'0 0.0
2015-Jun-25 12:32N 57°04' E 009°58'0 0.0
2015-Jun-25 11:32N 57°04' E 009°58'0 0.0
2015-Jun-25 10:29N 57°04' E 009°58'0 0.0
2015-Jun-25 09:32N 57°04' E 009°58'0 0.0
2015-Jun-25 08:29N 57°04' E 009°58'0 0.0
2015-Jun-25 07:32N 57°04' E 009°58'0 0.0
2015-Jun-25 06:32N 57°04' E 009°58'0 0.0
2015-Jun-25 05:32N 57°04' E 009°58'2 2.3
2015-Jun-25 04:33N 57°04' E 010°02'1010.1
2015-Jun-25 03:33N 56°59' E 010°19'46 3.2
2015-Jun-24 13:07N 57°43' E 010°41'  
Track history (hours):
 
Tides and Currents Weather Stations Pressure Air Temp Water Temp Dewpoint Dewpoint Depression Visibility Wind Speed Wind Dir Waves Ship Positions

Varnadiep

Last reported at 2015-Jul-04 07:25 UTC. Time now 2015-Jul-07 08:56 UTC.
Position N 56°41' E 019°42'.

Length 118 m; draft 4.8 m.

Type: Cargo ship. MMSI: 244729000.

Date/timePositionNaut miles runAvg speedWind from/ knotsBaromVisibWave heightAir tempDewpointWater temp
2015-Jul-04 07:25N 56°41' E 019°42'1312.7
2015-Jul-04 06:24N 56°33' E 019°23'2812.5
2015-Jul-04 04:11N 56°16' E 018°44'812.6
2015-Jul-04 03:33N 56°11' E 018°33'2512.5
2015-Jul-04 01:31N 55°55' E 017°57'1312.7
2015-Jul-04 00:31N 55°52' E 017°35'1212.6
2015-Jul-03 23:33N 55°49' E 017°14'1312.7
2015-Jul-03 22:33N 55°45' E 016°52'2512.5
2015-Jul-03 20:32N 55°38' E 016°09'1412.8
2015-Jul-03 19:26N 55°34' E 015°45'1112.9
2015-Jul-03 18:33N 55°31' E 015°26'1312.7
2015-Jul-03 17:33N 55°28' E 015°04'1212.4
2015-Jul-03 16:33N 55°24' E 014°43'1211.9
2015-Jul-03 15:32N 55°15' E 014°28'1111.2
2015-Jul-03 14:33N 55°10' E 014°12'1212.1
2015-Jul-03 13:33N 55°10' E 013°51'1212.1
2015-Jul-03 12:33N 55°12' E 013°30'1212.1
2015-Jul-03 11:33N 55°14' E 013°09'1212.1
2015-Jul-03 10:33N 55°15' E 012°48'9 9.5
2015-Jul-03 09:33N 55°24' E 012°40'1211.5
2015-Jul-03 08:33N 55°35' E 012°42'1010.4
2015-Jul-03 07:33N 55°46' E 012°41'1111.4
2015-Jul-03 06:33N 55°57' E 012°38'10 9.6
2015-Jul-03 05:33N 56°06' E 012°33'1111.2
2015-Jul-03 04:33N 56°13' E 012°16'1311.9
2015-Jul-03 03:26N 56°19' E 011°55'3211.1
2015-Jul-03 00:31N 56°33' E 011°03'1210.2
2015-Jul-02 23:19N 56°45' E 010°58'911.5
2015-Jul-02 22:33N 56°51' E 010°46'1110.7
2015-Jul-02 21:33N 56°56' E 010°29'8 7.9
2015-Jul-02 20:33N 56°59' E 010°15'10 9.6
2015-Jul-02 19:34N 57°05' E 010°02'2 1.8
2015-Jul-02 18:32N 57°04' E 009°58'0 0.0
2015-Jul-02 17:32N 57°04' E 009°58'0 0.0
2015-Jul-02 16:32N 57°04' E 009°58'0 0.0
2015-Jul-02 15:32N 57°04' E 009°58'0 0.0
2015-Jul-02 14:20N 57°04' E 009°58'0 0.0
2015-Jul-02 13:32N 57°04' E 009°58'0 0.0
2015-Jul-02 12:32N 57°04' E 009°58'0 0.0
2015-Jul-02 11:32N 57°04' E 009°58'0 0.0
2015-Jul-02 10:32N 57°04' E 009°58'0 0.0
2015-Jul-02 09:29N 57°04' E 009°58'0 0.0
2015-Jul-02 08:32N 57°04' E 009°58'0 0.0
2015-Jul-02 07:32N 57°04' E 009°58'0 0.0
2015-Jul-02 06:32N 57°04' E 009°58'0 0.0
2015-Jul-02 05:32N 57°04' E 009°58'0 0.0
2015-Jul-02 04:32N 57°04' E 009°58'0 0.0
2015-Jul-02 03:32N 57°04' E 009°58'0 0.0
2015-Jul-02 02:32N 57°04' E 009°58'0 0.0
2015-Jul-02 01:32N 57°04' E 009°58'0 0.0
2015-Jul-02 00:32N 57°04' E 009°58'0 0.0
2015-Jul-01 23:32N 57°04' E 009°58'0 0.0
2015-Jul-01 22:32N 57°04' E 009°58'0 0.0
2015-Jul-01 21:32N 57°04' E 009°58'0 0.0
2015-Jul-01 20:32N 57°04' E 009°58'0 0.0
2015-Jul-01 19:32N 57°04' E 009°58'0 0.0
2015-Jul-01 18:32N 57°04' E 009°58'0 0.0
2015-Jul-01 17:32N 57°04' E 009°58'0 0.0
2015-Jul-01 16:32N 57°04' E 009°58'0 0.0
2015-Jul-01 15:32N 57°04' E 009°58'0 0.0
2015-Jul-01 14:32N 57°04' E 009°58'0 0.0
2015-Jul-01 13:29N 57°04' E 009°58'0 0.0
2015-Jul-01 12:32N 57°04' E 009°58'0 0.0
2015-Jul-01 11:32N 57°04' E 009°58'0 0.0
2015-Jul-01 10:29N 57°04' E 009°58'0 0.0
2015-Jul-01 09:32N 57°04' E 009°58'0 0.0
2015-Jul-01 08:32N 57°04' E 009°58'0 0.0
2015-Jul-01 07:32N 57°04' E 009°58'0 0.0
2015-Jul-01 06:32N 57°04' E 009°58'0 0.0
2015-Jul-01 05:32N 57°04' E 009°58'0 0.0
2015-Jul-01 04:32N 57°04' E 009°58'0 0.0
2015-Jul-01 03:29N 57°04' E 009°58'0 0.0
2015-Jul-01 02:29N 57°04' E 009°58'0 0.0
2015-Jul-01 01:32N 57°04' E 009°58'0 0.0
2015-Jul-01 00:32N 57°04' E 009°58'0 0.0
2015-Jun-30 23:32N 57°04' E 009°58'0 0.0
2015-Jun-30 22:32N 57°04' E 009°58'0 0.0
2015-Jun-30 21:32N 57°04' E 009°58'0 0.0
2015-Jun-30 20:32N 57°04' E 009°58'0 0.0
2015-Jun-30 19:32N 57°04' E 009°58'0 0.0
2015-Jun-30 18:32N 57°04' E 009°58'0 0.0
2015-Jun-30 17:32N 57°04' E 009°58'0 0.0
2015-Jun-30 16:32N 57°04' E 009°58'0 0.0
2015-Jun-30 15:29N 57°04' E 009°58'0 0.0
2015-Jun-30 14:32N 57°04' E 009°58'0 0.0
2015-Jun-30 13:32N 57°04' E 009°58'0 0.0
2015-Jun-30 12:32N 57°04' E 009°58'0 0.0
2015-Jun-30 11:32N 57°04' E 009°58'0 0.0
2015-Jun-30 10:32N 57°04' E 009°58'0 0.0
2015-Jun-30 09:32N 57°04' E 009°58'0 0.0
2015-Jun-30 08:26N 57°04' E 009°58'0 0.0
2015-Jun-30 07:32N 57°04' E 009°58'0 0.0
2015-Jun-30 06:32N 57°04' E 009°58'0 0.0
2015-Jun-30 05:29N 57°04' E 009°58'0 0.0
2015-Jun-30 04:32N 57°04' E 009°58'0 0.0
2015-Jun-30 03:29N 57°04' E 009°58'0 0.0
2015-Jun-30 02:32N 57°04' E 009°58'0 0.0
2015-Jun-30 01:32N 57°04' E 009°58'0 0.0
2015-Jun-30 00:32N 57°04' E 009°58'0 0.0
2015-Jun-29 23:32N 57°04' E 009°58'0 0.0
2015-Jun-29 22:32N 57°04' E 009°58'0 0.0
2015-Jun-29 21:32N 57°04' E 009°58'0 0.0
2015-Jun-29 20:32N 57°04' E 009°58'0 0.0
2015-Jun-29 19:32N 57°04' E 009°58'0 0.0
2015-Jun-29 18:32N 57°04' E 009°58'0 0.0
2015-Jun-29 17:32N 57°04' E 009°58'0 0.0
2015-Jun-29 16:29N 57°04' E 009°58'0 0.0
2015-Jun-29 15:32N 57°04' E 009°58'0 0.0
2015-Jun-29 14:32N 57°04' E 009°58'0 0.0
2015-Jun-29 13:32N 57°04' E 009°58'0 0.0
2015-Jun-29 12:29N 57°04' E 009°58'0 0.0
2015-Jun-29 11:32N 57°04' E 009°58'0 0.0
2015-Jun-29 10:32N 57°04' E 009°58'0 0.0
2015-Jun-29 09:29N 57°04' E 009°58'0 0.0
2015-Jun-29 08:32N 57°04' E 009°58'  
2015-Jun-26 12:32N 57°04' E 009°58'0 0.0
2015-Jun-26 11:32N 57°04' E 009°58'0 0.0
2015-Jun-26 10:32N 57°04' E 009°58'0 0.0
2015-Jun-26 09:32N 57°04' E 009°58'0 0.0
2015-Jun-26 08:32N 57°04' E 009°58'0 0.0
2015-Jun-26 07:29N 57°04' E 009°58'0 0.0
2015-Jun-26 06:29N 57°04' E 009°58'0 0.0
2015-Jun-26 05:32N 57°04' E 009°58'0 0.0
2015-Jun-26 04:32N 57°04' E 009°58'0 0.0
2015-Jun-26 03:32N 57°04' E 009°58'0 0.0
2015-Jun-26 02:32N 57°04' E 009°58'0 0.0
2015-Jun-26 01:32N 57°04' E 009°58'0 0.0
2015-Jun-26 00:32N 57°04' E 009°58'0 0.0
2015-Jun-25 23:29N 57°04' E 009°58'0 0.0
2015-Jun-25 22:32N 57°04' E 009°58'0 0.0
2015-Jun-25 21:32N 57°04' E 009°58'0 0.0
2015-Jun-25 20:32N 57°04' E 009°58'0 0.0
2015-Jun-25 19:20N 57°04' E 009°58'0 0.0
2015-Jun-25 18:32N 57°04' E 009°58'0 0.0
2015-Jun-25 17:23N 57°04' E 009°58'0 0.0
2015-Jun-25 16:26N 57°04' E 009°58'0 0.0
2015-Jun-25 15:32N 57°04' E 009°58'0 0.0
2015-Jun-25 14:29N 57°04' E 009°58'0 0.0
2015-Jun-25 13:29N 57°04' E 009°58'0 0.0
2015-Jun-25 12:32N 57°04' E 009°58'0 0.0
2015-Jun-25 11:32N 57°04' E 009°58'0 0.0
2015-Jun-25 10:29N 57°04' E 009°58'0 0.0
2015-Jun-25 09:32N 57°04' E 009°58'0 0.0
2015-Jun-25 08:29N 57°04' E 009°58'0 0.0
2015-Jun-25 07:32N 57°04' E 009°58'0 0.0
2015-Jun-25 06:32N 57°04' E 009°58'0 0.0
2015-Jun-25 05:32N 57°04' E 009°58'2 2.3
2015-Jun-25 04:33N 57°04' E 010°02'1010.1
2015-Jun-25 03:33N 56°59' E 010°19'46 3.2
2015-Jun-24 13:07N 57°43' E 010°41'  

Dump ship's entire track history